sensor_id;sensor_type;location;lat;lon;timestamp;pressure;altitude;pressure_sealevel;temperature;humidity
70250;BME280;57644;48.416;-123.374;2022-08-18T00:00:17;101319.72;;;16.68;57.39
70250;BME280;57644;48.416;-123.374;2022-08-18T00:02:47;101323.86;;;16.69;57.44
70250;BME280;57644;48.416;-123.374;2022-08-18T00:05:18;101319.61;;;16.73;57.43
70250;BME280;57644;48.416;-123.374;2022-08-18T00:07:48;101318.86;;;16.73;57.26
70250;BME280;57644;48.416;-123.374;2022-08-18T00:10:25;101318.17;;;16.75;57.53
70250;BME280;57644;48.416;-123.374;2022-08-18T00:12:49;101316.35;;;16.78;57.42
70250;BME280;57644;48.416;-123.374;2022-08-18T00:15:20;101308.34;;;16.66;57.21
70250;BME280;57644;48.416;-123.374;2022-08-18T00:17:51;101308.72;;;16.63;57.25
70250;BME280;57644;48.416;-123.374;2022-08-18T00:20:24;101304.58;;;16.61;57.58
70250;BME280;57644;48.416;-123.374;2022-08-18T00:38:03;101288.57;;;16.76;57.17
70250;BME280;57644;48.416;-123.374;2022-08-18T00:40:32;101288.96;;;16.81;57.06
70250;BME280;57644;48.416;-123.374;2022-08-18T00:43:05;101287.71;;;16.82;56.88
70250;BME280;57644;48.416;-123.374;2022-08-18T00:45:33;101279.39;;;16.83;56.80
70250;BME280;57644;48.416;-123.374;2022-08-18T00:47:55;101277.85;;;16.84;56.80
70250;BME280;57644;48.416;-123.374;2022-08-18T00:52:59;101274.71;;;16.81;56.83
70250;BME280;57644;48.416;-123.374;2022-08-18T00:55:27;101271.88;;;16.80;56.84
70250;BME280;57644;48.416;-123.374;2022-08-18T00:58:01;101271.17;;;16.83;56.84
70250;BME280;57644;48.416;-123.374;2022-08-18T01:00:28;101269.86;;;16.82;56.81
70250;BME280;57644;48.416;-123.374;2022-08-18T01:03:00;101267.44;;;16.83;56.80
70250;BME280;57644;48.416;-123.374;2022-08-18T01:05:31;101264.15;;;16.82;56.82
70250;BME280;57644;48.416;-123.374;2022-08-18T01:07:58;101257.80;;;16.83;56.72
70250;BME280;57644;48.416;-123.374;2022-08-18T01:10:28;101254.53;;;16.76;56.45
70250;BME280;57644;48.416;-123.374;2022-08-18T01:12:58;101251.42;;;16.80;56.78
70250;BME280;57644;48.416;-123.374;2022-08-18T01:15:32;101252.22;;;16.81;56.69
70250;BME280;57644;48.416;-123.374;2022-08-18T01:18:00;101250.51;;;16.81;56.64
70250;BME280;57644;48.416;-123.374;2022-08-18T01:20:34;101248.98;;;16.82;56.43
70250;BME280;57644;48.416;-123.374;2022-08-18T01:23:03;101249.94;;;16.83;56.49
70250;BME280;57644;48.416;-123.374;2022-08-18T01:25:31;101250.50;;;16.85;56.37
70250;BME280;57644;48.416;-123.374;2022-08-18T01:28:00;101249.05;;;16.83;56.22
70250;BME280;57644;48.416;-123.374;2022-08-18T01:33:04;101241.98;;;16.88;56.14
70250;BME280;57644;48.416;-123.374;2022-08-18T01:35:31;101244.31;;;16.78;55.77
70250;BME280;57644;48.416;-123.374;2022-08-18T01:38:09;101250.00;;;16.74;56.05
70250;BME280;57644;48.416;-123.374;2022-08-18T01:40:32;101252.80;;;16.67;56.23
70250;BME280;57644;48.416;-123.374;2022-08-18T01:43:02;101252.14;;;16.60;56.28
70250;BME280;57644;48.416;-123.374;2022-08-18T01:45:33;101247.68;;;16.56;56.31
70250;BME280;57644;48.416;-123.374;2022-08-18T01:53:03;101239.44;;;16.45;56.49
70250;BME280;57644;48.416;-123.374;2022-08-18T01:55:49;101240.73;;;16.46;56.49
70250;BME280;57644;48.416;-123.374;2022-08-18T01:58:10;101241.17;;;16.38;56.11
70250;BME280;57644;48.416;-123.374;2022-08-18T02:03:08;101239.88;;;16.29;56.18
70250;BME280;57644;48.416;-123.374;2022-08-18T02:05:48;101236.31;;;16.24;56.44
70250;BME280;57644;48.416;-123.374;2022-08-18T02:08:05;101237.85;;;16.23;56.58
70250;BME280;57644;48.416;-123.374;2022-08-18T02:20:36;101228.14;;;15.99;56.66
70250;BME280;57644;48.416;-123.374;2022-08-18T02:23:05;101229.28;;;15.98;56.84
70250;BME280;57644;48.416;-123.374;2022-08-18T02:25:42;101232.18;;;15.98;57.05
70250;BME280;57644;48.416;-123.374;2022-08-18T02:40:38;101222.03;;;15.93;57.17
70250;BME280;57644;48.416;-123.374;2022-08-18T02:48:09;101223.29;;;15.89;57.17
70250;BME280;57644;48.416;-123.374;2022-08-18T02:50:49;101223.65;;;15.83;57.23
70250;BME280;57644;48.416;-123.374;2022-08-18T02:53:20;101233.16;;;15.79;57.13
70250;BME280;57644;48.416;-123.374;2022-08-18T03:00:42;101232.94;;;15.60;57.35
70250;BME280;57644;48.416;-123.374;2022-08-18T03:05:43;101229.99;;;15.42;57.67
70250;BME280;57644;48.416;-123.374;2022-08-18T03:08:14;101232.51;;;15.34;58.04
70250;BME280;57644;48.416;-123.374;2022-08-18T03:10:44;101235.37;;;15.25;58.18
70250;BME280;57644;48.416;-123.374;2022-08-18T03:16:04;101230.72;;;15.19;58.42
70250;BME280;57644;48.416;-123.374;2022-08-18T03:23:18;101223.71;;;15.12;58.31
70250;BME280;57644;48.416;-123.374;2022-08-18T03:28:17;101222.34;;;15.07;58.68
70250;BME280;57644;48.416;-123.374;2022-08-18T03:30:44;101224.10;;;15.03;59.01
70250;BME280;57644;48.416;-123.374;2022-08-18T03:33:13;101223.44;;;14.95;58.77
70250;BME280;57644;48.416;-123.374;2022-08-18T03:36:01;101226.86;;;14.89;59.28
70250;BME280;57644;48.416;-123.374;2022-08-18T03:38:17;101230.50;;;14.84;59.25
70250;BME280;57644;48.416;-123.374;2022-08-18T03:40:50;101226.71;;;14.78;59.56
70250;BME280;57644;48.416;-123.374;2022-08-18T03:45:44;101230.93;;;14.64;60.06
70250;BME280;57644;48.416;-123.374;2022-08-18T03:48:15;101232.25;;;14.57;60.25
70250;BME280;57644;48.416;-123.374;2022-08-18T03:50:45;101234.43;;;14.58;60.21
70250;BME280;57644;48.416;-123.374;2022-08-18T04:00:46;101228.81;;;14.45;60.60
70250;BME280;57644;48.416;-123.374;2022-08-18T04:05:48;101227.57;;;14.44;60.76
70250;BME280;57644;48.416;-123.374;2022-08-18T04:08:18;101225.10;;;14.41;60.75
70250;BME280;57644;48.416;-123.374;2022-08-18T04:10:51;101225.67;;;14.39;60.82
70250;BME280;57644;48.416;-123.374;2022-08-18T04:18:18;101226.64;;;14.31;61.25
70250;BME280;57644;48.416;-123.374;2022-08-18T04:20:49;101223.23;;;14.30;61.32
70250;BME280;57644;48.416;-123.374;2022-08-18T04:23:20;101223.04;;;14.29;61.40
70250;BME280;57644;48.416;-123.374;2022-08-18T04:25:55;101223.04;;;14.28;61.48
70250;BME280;57644;48.416;-123.374;2022-08-18T04:28:21;101225.91;;;14.29;61.31
70250;BME280;57644;48.416;-123.374;2022-08-18T04:30:52;101226.80;;;14.26;61.32
70250;BME280;57644;48.416;-123.374;2022-08-18T04:33:27;101227.99;;;14.20;61.63
70250;BME280;57644;48.416;-123.374;2022-08-18T04:35:56;101227.45;;;14.18;61.65
70250;BME280;57644;48.416;-123.374;2022-08-18T04:38:22;101223.80;;;14.16;61.53
70250;BME280;57644;48.416;-123.374;2022-08-18T04:40:52;101223.82;;;14.14;61.53
70250;BME280;57644;48.416;-123.374;2022-08-18T04:43:22;101222.58;;;14.09;61.78
70250;BME280;57644;48.416;-123.374;2022-08-18T04:45:53;101222.94;;;14.06;61.83
70250;BME280;57644;48.416;-123.374;2022-08-18T04:48:24;101223.06;;;14.02;61.97
70250;BME280;57644;48.416;-123.374;2022-08-18T04:50:56;101223.88;;;14.00;62.09
70250;BME280;57644;48.416;-123.374;2022-08-18T04:53:25;101221.64;;;13.97;62.15
70250;BME280;57644;48.416;-123.374;2022-08-18T04:58:29;101220.69;;;13.88;62.46
70250;BME280;57644;48.416;-123.374;2022-08-18T05:01:00;101220.61;;;13.73;62.96
70250;BME280;57644;48.416;-123.374;2022-08-18T05:05:56;101218.63;;;13.64;63.47
70250;BME280;57644;48.416;-123.374;2022-08-18T05:08:29;101216.86;;;13.62;63.53
70250;BME280;57644;48.416;-123.374;2022-08-18T05:10:57;101216.75;;;13.63;63.39
70250;BME280;57644;48.416;-123.374;2022-08-18T05:13:26;101216.82;;;13.64;63.52
70250;BME280;57644;48.416;-123.374;2022-08-18T05:16:03;101217.60;;;13.68;63.51
70250;BME280;57644;48.416;-123.374;2022-08-18T05:18:27;101217.15;;;13.70;63.70
70250;BME280;57644;48.416;-123.374;2022-08-18T05:21:00;101215.98;;;13.71;63.65
70250;BME280;57644;48.416;-123.374;2022-08-18T05:23:28;101217.89;;;13.74;63.53
70250;BME280;57644;48.416;-123.374;2022-08-18T05:26:00;101217.14;;;13.77;63.39
70250;BME280;57644;48.416;-123.374;2022-08-18T05:33:28;101213.04;;;13.78;63.35
70250;BME280;57644;48.416;-123.374;2022-08-18T05:36:03;101211.78;;;13.77;63.51
70250;BME280;57644;48.416;-123.374;2022-08-18T05:38:40;101208.33;;;13.73;63.53
70250;BME280;57644;48.416;-123.374;2022-08-18T05:41:08;101209.79;;;13.67;63.90
70250;BME280;57644;48.416;-123.374;2022-08-18T05:43:28;101211.91;;;13.63;63.95
70250;BME280;57644;48.416;-123.374;2022-08-18T05:46:16;101214.45;;;13.61;64.11
70250;BME280;57644;48.416;-123.374;2022-08-18T05:48:34;101215.96;;;13.60;64.19
70250;BME280;57644;48.416;-123.374;2022-08-18T05:51:08;101214.75;;;13.61;64.11
70250;BME280;57644;48.416;-123.374;2022-08-18T05:56:02;101213.68;;;13.52;64.43
70250;BME280;57644;48.416;-123.374;2022-08-18T06:01:05;101217.81;;;13.50;64.82
70250;BME280;57644;48.416;-123.374;2022-08-18T06:03:35;101218.05;;;13.51;64.73
70250;BME280;57644;48.416;-123.374;2022-08-18T06:06:03;101216.67;;;13.53;64.76
70250;BME280;57644;48.416;-123.374;2022-08-18T06:08:38;101214.44;;;13.54;64.86
70250;BME280;57644;48.416;-123.374;2022-08-18T06:11:02;101210.67;;;13.53;65.27
70250;BME280;57644;48.416;-123.374;2022-08-18T06:13:38;101204.82;;;13.52;65.43
70250;BME280;57644;48.416;-123.374;2022-08-18T06:16:08;101204.03;;;13.48;65.65
70250;BME280;57644;48.416;-123.374;2022-08-18T06:18:42;101204.64;;;13.46;65.84
70250;BME280;57644;48.416;-123.374;2022-08-18T06:23:40;101214.07;;;13.39;66.37
70250;BME280;57644;48.416;-123.374;2022-08-18T06:26:19;101212.82;;;13.39;66.52
70250;BME280;57644;48.416;-123.374;2022-08-18T06:28:46;101211.05;;;13.40;66.91
70250;BME280;57644;48.416;-123.374;2022-08-18T06:31:11;101204.60;;;13.43;66.93
70250;BME280;57644;48.416;-123.374;2022-08-18T06:33:45;101199.70;;;13.45;66.87
70250;BME280;57644;48.416;-123.374;2022-08-18T06:36:09;101195.58;;;13.48;66.81
70250;BME280;57644;48.416;-123.374;2022-08-18T06:38:43;101196.60;;;13.49;66.96
70250;BME280;57644;48.416;-123.374;2022-08-18T06:41:12;101200.27;;;13.48;67.05
70250;BME280;57644;48.416;-123.374;2022-08-18T06:43:37;101205.23;;;13.48;67.06
70250;BME280;57644;48.416;-123.374;2022-08-18T06:46:10;101205.84;;;13.46;67.25
70250;BME280;57644;48.416;-123.374;2022-08-18T06:48:41;101209.95;;;13.46;67.21
70250;BME280;57644;48.416;-123.374;2022-08-18T06:51:16;101208.50;;;13.46;67.33
70250;BME280;57644;48.416;-123.374;2022-08-18T06:58:37;101215.17;;;13.42;68.01
70250;BME280;57644;48.416;-123.374;2022-08-18T07:01:07;101213.71;;;13.40;68.11
70250;BME280;57644;48.416;-123.374;2022-08-18T07:03:43;101214.02;;;13.37;68.30
70250;BME280;57644;48.416;-123.374;2022-08-18T07:06:10;101215.93;;;13.34;68.44
70250;BME280;57644;48.416;-123.374;2022-08-18T07:08:39;101218.04;;;13.35;68.54
70250;BME280;57644;48.416;-123.374;2022-08-18T07:11:19;101220.49;;;13.34;68.52
70250;BME280;57644;48.416;-123.374;2022-08-18T07:13:41;101220.40;;;13.33;68.70
70250;BME280;57644;48.416;-123.374;2022-08-18T07:16:15;101225.33;;;13.30;68.91
70250;BME280;57644;48.416;-123.374;2022-08-18T07:18:39;101228.37;;;13.30;68.91
70250;BME280;57644;48.416;-123.374;2022-08-18T07:23:40;101229.04;;;13.30;68.92
70250;BME280;57644;48.416;-123.374;2022-08-18T07:26:13;101222.34;;;13.30;68.98
70250;BME280;57644;48.416;-123.374;2022-08-18T07:28:42;101220.10;;;13.30;68.99
70250;BME280;57644;48.416;-123.374;2022-08-18T07:31:20;101216.41;;;13.27;69.07
70250;BME280;57644;48.416;-123.374;2022-08-18T07:33:43;101216.93;;;13.24;69.25
70250;BME280;57644;48.416;-123.374;2022-08-18T07:36:12;101216.17;;;13.22;69.15
70250;BME280;57644;48.416;-123.374;2022-08-18T07:38:46;101217.22;;;13.19;69.17
70250;BME280;57644;48.416;-123.374;2022-08-18T07:41:15;101215.74;;;13.13;69.53
70250;BME280;57644;48.416;-123.374;2022-08-18T07:43:49;101212.96;;;13.12;69.50
70250;BME280;57644;48.416;-123.374;2022-08-18T07:46:18;101213.63;;;13.13;69.67
70250;BME280;57644;48.416;-123.374;2022-08-18T07:48:42;101215.16;;;13.10;69.85
70250;BME280;57644;48.416;-123.374;2022-08-18T07:51:18;101217.81;;;13.09;70.12
70250;BME280;57644;48.416;-123.374;2022-08-18T07:53:51;101223.55;;;13.07;70.06
70250;BME280;57644;48.416;-123.374;2022-08-18T07:56:19;101226.35;;;13.05;70.19
70250;BME280;57644;48.416;-123.374;2022-08-18T08:01:22;101224.85;;;13.07;70.06
70250;BME280;57644;48.416;-123.374;2022-08-18T08:03:51;101225.98;;;13.05;70.01
70250;BME280;57644;48.416;-123.374;2022-08-18T08:06:22;101229.19;;;13.01;70.10
70250;BME280;57644;48.416;-123.374;2022-08-18T08:08:51;101231.89;;;13.00;70.24
70250;BME280;57644;48.416;-123.374;2022-08-18T08:11:23;101234.80;;;13.00;70.36
70250;BME280;57644;48.416;-123.374;2022-08-18T08:13:53;101234.67;;;13.01;70.39
70250;BME280;57644;48.416;-123.374;2022-08-18T08:16:22;101238.31;;;13.00;70.39
70250;BME280;57644;48.416;-123.374;2022-08-18T08:18:53;101245.77;;;13.01;70.45
70250;BME280;57644;48.416;-123.374;2022-08-18T08:21:19;101246.65;;;13.00;70.35
70250;BME280;57644;48.416;-123.374;2022-08-18T08:23:54;101248.53;;;12.98;70.44
70250;BME280;57644;48.416;-123.374;2022-08-18T08:26:26;101241.13;;;12.99;70.42
70250;BME280;57644;48.416;-123.374;2022-08-18T08:31:25;101250.06;;;13.00;70.62
70250;BME280;57644;48.416;-123.374;2022-08-18T08:33:52;101253.98;;;13.01;70.57
70250;BME280;57644;48.416;-123.374;2022-08-18T08:36:24;101252.15;;;12.99;70.86
70250;BME280;57644;48.416;-123.374;2022-08-18T08:38:53;101254.74;;;12.96;71.00
70250;BME280;57644;48.416;-123.374;2022-08-18T08:41:28;101258.91;;;12.94;70.98
70250;BME280;57644;48.416;-123.374;2022-08-18T08:43:53;101258.11;;;12.93;70.97
70250;BME280;57644;48.416;-123.374;2022-08-18T08:46:23;101264.82;;;12.91;70.70
70250;BME280;57644;48.416;-123.374;2022-08-18T08:48:55;101265.20;;;12.85;70.61
70250;BME280;57644;48.416;-123.374;2022-08-18T08:53:56;101268.21;;;12.75;70.77
70250;BME280;57644;48.416;-123.374;2022-08-18T08:56:25;101267.93;;;12.71;70.80
70250;BME280;57644;48.416;-123.374;2022-08-18T08:58:55;101270.02;;;12.66;70.83
70250;BME280;57644;48.416;-123.374;2022-08-18T09:01:29;101268.54;;;12.64;71.08
70250;BME280;57644;48.416;-123.374;2022-08-18T09:03:58;101268.22;;;12.62;71.33
70250;BME280;57644;48.416;-123.374;2022-08-18T09:06:28;101268.60;;;12.60;71.79
70250;BME280;57644;48.416;-123.374;2022-08-18T09:11:35;101270.55;;;12.52;72.06
70250;BME280;57644;48.416;-123.374;2022-08-18T09:14:10;101273.45;;;12.47;72.29
70250;BME280;57644;48.416;-123.374;2022-08-18T09:16:36;101274.08;;;12.45;72.47
70250;BME280;57644;48.416;-123.374;2022-08-18T09:19:05;101274.25;;;12.47;72.74
70250;BME280;57644;48.416;-123.374;2022-08-18T09:21:33;101277.41;;;12.46;72.71
70250;BME280;57644;48.416;-123.374;2022-08-18T09:24:05;101275.52;;;12.45;72.67
70250;BME280;57644;48.416;-123.374;2022-08-18T09:29:04;101267.30;;;12.43;72.71
70250;BME280;57644;48.416;-123.374;2022-08-18T09:31:28;101265.86;;;12.40;72.97
70250;BME280;57644;48.416;-123.374;2022-08-18T09:34:04;101267.23;;;12.40;72.79
70250;BME280;57644;48.416;-123.374;2022-08-18T09:36:38;101264.37;;;12.42;72.75
70250;BME280;57644;48.416;-123.374;2022-08-18T09:39:00;101260.51;;;12.43;72.85
70250;BME280;57644;48.416;-123.374;2022-08-18T09:41:35;101260.97;;;12.46;72.48
70250;BME280;57644;48.416;-123.374;2022-08-18T09:44:00;101260.36;;;12.49;72.27
70250;BME280;57644;48.416;-123.374;2022-08-18T09:51:34;101264.08;;;12.51;72.19
70250;BME280;57644;48.416;-123.374;2022-08-18T09:59:00;101271.56;;;12.54;72.05
70250;BME280;57644;48.416;-123.374;2022-08-18T10:01:37;101268.58;;;12.52;72.05
70250;BME280;57644;48.416;-123.374;2022-08-18T10:06:37;101267.35;;;12.50;72.37
70250;BME280;57644;48.416;-123.374;2022-08-18T10:11:45;101266.35;;;12.43;72.43
70250;BME280;57644;48.416;-123.374;2022-08-18T10:14:21;101268.46;;;12.44;72.44
70250;BME280;57644;48.416;-123.374;2022-08-18T10:16:36;101270.69;;;12.47;72.53
70250;BME280;57644;48.416;-123.374;2022-08-18T10:19:09;101270.73;;;12.50;72.40
70250;BME280;57644;48.416;-123.374;2022-08-18T10:24:13;101274.45;;;12.47;72.39
70250;BME280;57644;48.416;-123.374;2022-08-18T10:29:06;101273.66;;;12.43;72.55
70250;BME280;57644;48.416;-123.374;2022-08-18T10:34:09;101264.89;;;12.42;72.95
70250;BME280;57644;48.416;-123.374;2022-08-18T10:36:44;101259.47;;;12.42;72.99
70250;BME280;57644;48.416;-123.374;2022-08-18T10:39:10;101259.62;;;12.40;73.03
70250;BME280;57644;48.416;-123.374;2022-08-18T10:41:43;101256.96;;;12.41;73.03
70250;BME280;57644;48.416;-123.374;2022-08-18T10:44:07;101263.62;;;12.41;73.17
70250;BME280;57644;48.416;-123.374;2022-08-18T10:46:51;101268.72;;;12.42;73.20
70250;BME280;57644;48.416;-123.374;2022-08-18T10:49:18;101271.00;;;12.45;72.87
70250;BME280;57644;48.416;-123.374;2022-08-18T10:51:49;101274.07;;;12.47;72.66
70250;BME280;57644;48.416;-123.374;2022-08-18T10:54:14;101274.71;;;12.43;72.73
70250;BME280;57644;48.416;-123.374;2022-08-18T10:56:43;101270.91;;;12.41;73.06
70250;BME280;57644;48.416;-123.374;2022-08-18T10:59:17;101267.18;;;12.40;73.19
70250;BME280;57644;48.416;-123.374;2022-08-18T11:01:53;101268.08;;;12.38;73.23
70250;BME280;57644;48.416;-123.374;2022-08-18T11:06:46;101267.19;;;12.39;73.17
70250;BME280;57644;48.416;-123.374;2022-08-18T11:09:22;101262.03;;;12.40;73.15
70250;BME280;57644;48.416;-123.374;2022-08-18T11:11:42;101260.72;;;12.40;72.42
70250;BME280;57644;48.416;-123.374;2022-08-18T11:14:35;101263.10;;;12.41;72.36
70250;BME280;57644;48.416;-123.374;2022-08-18T11:16:50;101267.89;;;12.43;72.28
70250;BME280;57644;48.416;-123.374;2022-08-18T11:19:15;101273.24;;;12.44;72.25
70250;BME280;57644;48.416;-123.374;2022-08-18T11:21:43;101278.18;;;12.45;72.00
70250;BME280;57644;48.416;-123.374;2022-08-18T11:24:14;101278.56;;;12.44;71.99
70250;BME280;57644;48.416;-123.374;2022-08-18T11:26:45;101277.00;;;12.41;71.49
70250;BME280;57644;48.416;-123.374;2022-08-18T11:29:20;101278.84;;;12.41;71.11
70250;BME280;57644;48.416;-123.374;2022-08-18T11:31:45;101273.95;;;12.38;71.06
70250;BME280;57644;48.416;-123.374;2022-08-18T11:34:16;101273.07;;;12.36;71.27
70250;BME280;57644;48.416;-123.374;2022-08-18T11:36:43;101275.11;;;12.35;71.28
70250;BME280;57644;48.416;-123.374;2022-08-18T11:39:13;101275.61;;;12.32;71.37
70250;BME280;57644;48.416;-123.374;2022-08-18T11:41:45;101279.19;;;12.32;71.74
70250;BME280;57644;48.416;-123.374;2022-08-18T11:44:19;101277.70;;;12.34;71.57
70250;BME280;57644;48.416;-123.374;2022-08-18T11:46:45;101274.13;;;12.36;70.82
70250;BME280;57644;48.416;-123.374;2022-08-18T11:49:18;101284.36;;;12.35;69.93
70250;BME280;57644;48.416;-123.374;2022-08-18T11:51:53;101289.30;;;12.29;69.63
70250;BME280;57644;48.416;-123.374;2022-08-18T11:54:22;101291.39;;;12.25;69.07
70250;BME280;57644;48.416;-123.374;2022-08-18T11:56:45;101287.50;;;12.19;68.76
70250;BME280;57644;48.416;-123.374;2022-08-18T12:01:50;101279.43;;;12.04;68.73
70250;BME280;57644;48.416;-123.374;2022-08-18T12:04:22;101281.45;;;11.92;69.31
70250;BME280;57644;48.416;-123.374;2022-08-18T12:06:57;101290.13;;;11.86;69.57
70250;BME280;57644;48.416;-123.374;2022-08-18T12:09:20;101290.88;;;11.87;69.59
70250;BME280;57644;48.416;-123.374;2022-08-18T12:11:54;101285.88;;;11.82;69.83
70250;BME280;57644;48.416;-123.374;2022-08-18T12:14:21;101288.39;;;11.81;70.16
70250;BME280;57644;48.416;-123.374;2022-08-18T12:16:50;101296.97;;;11.83;70.22
70250;BME280;57644;48.416;-123.374;2022-08-18T12:19:19;101304.37;;;11.84;70.21
70250;BME280;57644;48.416;-123.374;2022-08-18T12:21:52;101297.29;;;11.83;70.14
70250;BME280;57644;48.416;-123.374;2022-08-18T12:24:21;101284.72;;;11.80;70.36
70250;BME280;57644;48.416;-123.374;2022-08-18T12:26:51;101279.72;;;11.80;70.72
70250;BME280;57644;48.416;-123.374;2022-08-18T12:29:20;101280.37;;;11.80;71.01
70250;BME280;57644;48.416;-123.374;2022-08-18T12:31:52;101277.24;;;11.77;71.26
70250;BME280;57644;48.416;-123.374;2022-08-18T12:34:22;101272.17;;;11.79;71.70
70250;BME280;57644;48.416;-123.374;2022-08-18T12:36:51;101278.01;;;11.79;71.67
70250;BME280;57644;48.416;-123.374;2022-08-18T12:39:21;101285.59;;;11.78;71.54
70250;BME280;57644;48.416;-123.374;2022-08-18T12:41:52;101294.88;;;11.75;71.58
70250;BME280;57644;48.416;-123.374;2022-08-18T12:44:21;101299.90;;;11.76;71.36
70250;BME280;57644;48.416;-123.374;2022-08-18T12:46:52;101306.16;;;11.71;70.82
70250;BME280;57644;48.416;-123.374;2022-08-18T12:49:23;101311.38;;;11.70;70.64
70250;BME280;57644;48.416;-123.374;2022-08-18T12:51:52;101314.18;;;11.72;70.22
70250;BME280;57644;48.416;-123.374;2022-08-18T12:54:22;101310.73;;;11.72;69.61
70250;BME280;57644;48.416;-123.374;2022-08-18T12:56:54;101311.97;;;11.65;69.45
70250;BME280;57644;48.416;-123.374;2022-08-18T12:59:23;101310.25;;;11.61;69.48
70250;BME280;57644;48.416;-123.374;2022-08-18T13:01:53;101306.30;;;11.57;69.23
70250;BME280;57644;48.416;-123.374;2022-08-18T13:04:39;101305.35;;;11.55;69.51
70250;BME280;57644;48.416;-123.374;2022-08-18T13:06:57;101307.76;;;11.50;70.18
70250;BME280;57644;48.416;-123.374;2022-08-18T13:09:25;101312.00;;;11.48;70.10
70250;BME280;57644;48.416;-123.374;2022-08-18T13:11:55;101313.22;;;11.50;70.05
70250;BME280;57644;48.416;-123.374;2022-08-18T13:14:25;101311.03;;;11.46;69.98
70250;BME280;57644;48.416;-123.374;2022-08-18T13:16:56;101317.94;;;11.35;70.57
70250;BME280;57644;48.416;-123.374;2022-08-18T13:19:26;101329.22;;;11.38;70.50
70250;BME280;57644;48.416;-123.374;2022-08-18T13:21:57;101331.11;;;11.38;70.26
70250;BME280;57644;48.416;-123.374;2022-08-18T13:24:27;101327.55;;;11.33;70.20
70250;BME280;57644;48.416;-123.374;2022-08-18T13:26:57;101329.53;;;11.34;70.01
70250;BME280;57644;48.416;-123.374;2022-08-18T13:29:28;101321.56;;;11.30;70.04
70250;BME280;57644;48.416;-123.374;2022-08-18T13:31:58;101313.05;;;11.22;70.35
70250;BME280;57644;48.416;-123.374;2022-08-18T13:34:29;101316.90;;;11.14;70.76
70250;BME280;57644;48.416;-123.374;2022-08-18T13:36:59;101328.50;;;11.02;71.39
70250;BME280;57644;48.416;-123.374;2022-08-18T13:39:30;101327.49;;;10.97;71.67
70250;BME280;57644;48.416;-123.374;2022-08-18T13:42:01;101326.72;;;10.96;72.15
70250;BME280;57644;48.416;-123.374;2022-08-18T13:44:30;101322.50;;;10.96;72.15
70250;BME280;57644;48.416;-123.374;2022-08-18T13:47:01;101327.11;;;10.96;72.09
70250;BME280;57644;48.416;-123.374;2022-08-18T13:49:31;101335.63;;;10.96;72.13
70250;BME280;57644;48.416;-123.374;2022-08-18T13:52:00;101342.59;;;11.00;72.11
70250;BME280;57644;48.416;-123.374;2022-08-18T13:54:32;101341.97;;;11.01;72.20
70250;BME280;57644;48.416;-123.374;2022-08-18T13:57:02;101335.36;;;11.04;72.29
70250;BME280;57644;48.416;-123.374;2022-08-18T13:59:33;101332.23;;;11.04;72.61
70250;BME280;57644;48.416;-123.374;2022-08-18T14:02:07;101335.19;;;10.99;72.74
70250;BME280;57644;48.416;-123.374;2022-08-18T14:04:33;101338.65;;;10.95;73.24
70250;BME280;57644;48.416;-123.374;2022-08-18T14:07:04;101345.59;;;10.94;73.39
70250;BME280;57644;48.416;-123.374;2022-08-18T14:09:34;101353.33;;;11.00;73.27
70250;BME280;57644;48.416;-123.374;2022-08-18T14:12:05;101352.36;;;11.06;73.20
70250;BME280;57644;48.416;-123.374;2022-08-18T14:14:35;101344.04;;;11.11;73.11
70250;BME280;57644;48.416;-123.374;2022-08-18T14:17:05;101345.78;;;11.11;73.32
70250;BME280;57644;48.416;-123.374;2022-08-18T14:19:36;101354.80;;;11.07;73.84
70250;BME280;57644;48.416;-123.374;2022-08-18T14:22:06;101357.34;;;11.09;74.03
70250;BME280;57644;48.416;-123.374;2022-08-18T14:24:37;101351.03;;;11.15;74.27
70250;BME280;57644;48.416;-123.374;2022-08-18T14:27:07;101351.97;;;11.22;74.24
70250;BME280;57644;48.416;-123.374;2022-08-18T14:29:37;101368.70;;;11.29;73.95
70250;BME280;57644;48.416;-123.374;2022-08-18T14:32:08;101385.62;;;11.40;73.61
70250;BME280;57644;48.416;-123.374;2022-08-18T14:34:38;101391.73;;;11.40;73.20
70250;BME280;57644;48.416;-123.374;2022-08-18T14:37:08;101396.06;;;11.46;72.72
70250;BME280;57644;48.416;-123.374;2022-08-18T14:39:38;101391.92;;;11.48;72.37
70250;BME280;57644;48.416;-123.374;2022-08-18T14:42:10;101381.60;;;11.51;72.34
70250;BME280;57644;48.416;-123.374;2022-08-18T14:44:40;101366.93;;;11.47;72.90
70250;BME280;57644;48.416;-123.374;2022-08-18T14:47:09;101354.46;;;11.41;73.43
70250;BME280;57644;48.416;-123.374;2022-08-18T14:49:40;101359.31;;;11.46;73.53
70250;BME280;57644;48.416;-123.374;2022-08-18T14:52:10;101365.68;;;11.50;73.80
70250;BME280;57644;48.416;-123.374;2022-08-18T14:54:41;101362.85;;;11.53;73.67
70250;BME280;57644;48.416;-123.374;2022-08-18T14:57:11;101358.09;;;11.60;73.59
70250;BME280;57644;48.416;-123.374;2022-08-18T14:59:41;101353.81;;;11.71;73.47
70250;BME280;57644;48.416;-123.374;2022-08-18T15:02:11;101349.52;;;11.80;73.23
70250;BME280;57644;48.416;-123.374;2022-08-18T15:04:42;101340.92;;;11.89;73.40
70250;BME280;57644;48.416;-123.374;2022-08-18T15:07:11;101329.22;;;11.96;73.43
70250;BME280;57644;48.416;-123.374;2022-08-18T15:09:42;101336.42;;;12.06;72.98